WetterOnline ( https://www.wetteronline.ch )

Wetter aktuell Magdeburg

Aktuelles Wetter: Magdeburg (85m)

6-stündlich | Neueste Meldungen
Ortszeit Temperatur Wetter
So, 25.02. 1:00 3.2° C wolkenlos
Sa, 24.02. 19:00 6.5° C wolkig
Sa, 24.02. 13:00 9.1° C leicht bewölkt
Sa, 24.02. 7:00 1.2° C leicht bewölkt
Sa, 24.02. 1:00 2.0° C wolkenlos
Fr, 23.02. 19:00 6.1° C leicht bewölkt
Fr, 23.02. 13:00 9.3° C wolkig
Fr, 23.02. 7:00 5.6° C leicht bewölkt
Ortszeit Temperatur Wetter
So, 25.02. 6:00 0.9° C wolkig
So, 25.02. 5:50 0.9° C wolkig
So, 25.02. 5:40 0.9° C wolkig
So, 25.02. 5:30 0.4° C leicht bewölkt
So, 25.02. 5:20 0.4° C leicht bewölkt
So, 25.02. 5:10 1.1° C leicht bewölkt
So, 25.02. 5:00 0.9° C wolkenlos
So, 25.02. 4:30 1.2° C wolkenlos
So, 25.02. 4:00 1.2° C fast wolkenlos
So, 25.02. 3:30 1.4° C fast wolkenlos
So, 25.02. 3:00 1.4° C fast wolkenlos
Ortszeit Relative Feuchte Sichtweite
So, 25.02. 1:00 77% 60 km
Sa, 24.02. 19:00 67% >70 km
Sa, 24.02. 13:00 61% >70 km
Sa, 24.02. 7:00 89% 40 km
Sa, 24.02. 1:00 86% 45 km
Fr, 23.02. 19:00 73% 55 km
Fr, 23.02. 13:00 51% 55 km
Fr, 23.02. 7:00 70% >70 km
Ortszeit Relative Feuchte Sichtweite
So, 25.02. 6:00 88% 55 km
So, 25.02. 5:50 88% -
So, 25.02. 5:40 88% -
So, 25.02. 5:30 89% 45 km
So, 25.02. 5:20 89% -
So, 25.02. 5:10 86% -
So, 25.02. 5:00 87% 50 km
So, 25.02. 4:30 86% 60 km
So, 25.02. 4:00 85% 60 km
So, 25.02. 3:30 83% 50 km
So, 25.02. 3:00 83% 55 km
Ortszeit Niederschlagsmenge Niederschlagsart
So, 25.02. 1:00 0.0 l/m2 in 6 Std. -
Sa, 24.02. 19:00 0.1 l/m2 in 12 Std. Regen
Sa, 24.02. 13:00 0.0 l/m2 in 6 Std. -
Sa, 24.02. 7:00 0.0 l/m2 in 12 Std. -
Sa, 24.02. 1:00 0.0 l/m2 in 6 Std. -
Fr, 23.02. 19:00 0.0 l/m2 in 12 Std. -
Fr, 23.02. 13:00 0.0 l/m2 in 6 Std. -
Fr, 23.02. 7:00 1 l/m2 in 12 Std. -
Ortszeit Niederschlagsmenge Niederschlagsart
So, 25.02. 6:00 0.0 l/m2 in 1 Std. -
So, 25.02. 5:50 keine Meldung -
So, 25.02. 5:40 keine Meldung -
So, 25.02. 5:30 0.0 l/m2 in 30 Min -
So, 25.02. 5:20 keine Meldung -
So, 25.02. 5:10 keine Meldung -
So, 25.02. 5:00 0.0 l/m2 in 1 Std. -
So, 25.02. 4:30 0.0 l/m2 in 30 Min -
So, 25.02. 4:00 0.0 l/m2 in 1 Std. -
So, 25.02. 3:30 0.0 l/m2 in 30 Min -
So, 25.02. 3:00 0.0 l/m2 in 1 Std. -
Ortszeit Stärke Spitze Richtung
km/h Bft. km/h Grad Sektor
So, 25.02. 1:00 9 2 28 180° S
Sa, 24.02. 19:00 11 2 36 190° S
Sa, 24.02. 13:00 17 3 35 220° SW
Sa, 24.02. 7:00 7 2 14 160° S
Sa, 24.02. 1:00 6 1 20 180° S
Fr, 23.02. 19:00 11 2 40 160° S
Fr, 23.02. 13:00 14 3 29 200° S
Fr, 23.02. 7:00 9 2 56 260° W
Ortszeit Stärke Spitze Richtung
km/h Bft. km/h Grad Sektor
So, 25.02. 6:00 7 2 11 150° SO
So, 25.02. 5:50 7 2 - 150° SO
So, 25.02. 5:40 7 2 - 150° SO
So, 25.02. 5:30 7 2 11 160° S
So, 25.02. 5:20 7 2 - 160° S
So, 25.02. 5:10 7 2 - 150° SO
So, 25.02. 5:00 7 2 11 160° S
So, 25.02. 4:30 7 2 11 160° S
So, 25.02. 4:00 7 2 14 160° S
So, 25.02. 3:30 7 2 13 160° S
So, 25.02. 3:00 9 2 15 190° S
Ortszeit Untergrenze Bedeckung Gattung
total tief tief mittel hoch
So, 25.02. 1:00 - 0/8 0/8 - - -
Sa, 24.02. 19:00 1800 m 7/8 2/8 - - -
Sa, 24.02. 13:00 2700 m 2/8 1/8 - - -
Sa, 24.02. 7:00 1800 m 3/8 3/8 - - -
Sa, 24.02. 1:00 - 0/8 0/8 - - -
Fr, 23.02. 19:00 7500 m 3/8 0/8 - - -
Fr, 23.02. 13:00 1320 m 7/8 2/8 - - -
Fr, 23.02. 7:00 1500 m 4/8 1/8 - - -
Ortszeit Bedeckungsgrad in Achtel und Wolkenuntergrenze
So, 25.02. 6:00 4(7500m) 7(8100m)
So, 25.02. 5:50 4(7500m) 7(8100m)
So, 25.02. 5:40 5
So, 25.02. 5:30 1(6300m) 4(7200m) 5(8400m)
So, 25.02. 5:20 1(6300m) 4(7200m) 5(8400m)
So, 25.02. 5:10 3
So, 25.02. 5:00 keine Wolken
So, 25.02. 4:30 keine Wolken
So, 25.02. 4:00 1(8100m)
So, 25.02. 3:30 1(8100m)
So, 25.02. 3:00 2(8100m)
Ortszeit Luftdruck NN (hPa) Tendenz (hPa in 3 Std.)
So, 25.02. 1:00 1007 + 0,7
Sa, 24.02. 19:00 1006 + 2,4
Sa, 24.02. 13:00 1002 + 1,3
Sa, 24.02. 7:00 1000 + 0,7
Sa, 24.02. 1:00 999 + 0,1
Fr, 23.02. 19:00 998 + 0,9
Fr, 23.02. 13:00 997 + 0,8
Fr, 23.02. 7:00 993 + 4,4
Ortszeit Luftdruck NN (hPa) Tendenz (hPa in 3 Std.)
So, 25.02. 6:00 1006 - 0,8
So, 25.02. 5:50 1006 keine Meldung
So, 25.02. 5:40 1007 keine Meldung
So, 25.02. 5:30 1007 - 0,9
So, 25.02. 5:20 1007 keine Meldung
So, 25.02. 5:10 1007 keine Meldung
So, 25.02. 5:00 1007 - 0,6
So, 25.02. 4:30 1007 - 0,8
So, 25.02. 4:00 1007 - 0,5
So, 25.02. 3:30 1007 - 0,3
So, 25.02. 3:00 1007 + 0,3
Ortszeit Schneehöhe (cm)
So, 25.02. 1:00 0
Sa, 24.02. 19:00 0
Sa, 24.02. 13:00 0
Sa, 24.02. 7:00 0
Sa, 24.02. 1:00 0
Fr, 23.02. 19:00 0
Fr, 23.02. 13:00 0
Fr, 23.02. 7:00 0
Ortszeit Schneehöhe (cm)
So, 25.02. 6:00 0
So, 25.02. 5:50 0
So, 25.02. 5:40 -
So, 25.02. 5:30 0
So, 25.02. 5:20 0
So, 25.02. 5:10 -
So, 25.02. 5:00 0
So, 25.02. 4:30 0
So, 25.02. 4:00 0
So, 25.02. 3:30 0
So, 25.02. 3:00 0
Link zu dieser Seite / Seite empfehlen

Das Wetter in ...